Time;durP1;ratioP1;P1;durP2;ratioP2;P2;SDS_P1;SDS_P2;PMS_P1;PMS_P2;Temp;Humidity;BMP_temperature;BMP_pressure;BME280_temperature;BME280_humidity;BME280_pressure;Samples;Min_cycle;Max_cycle;Signal;HPM_P1;HPM_P2
2021/12/09 00:00:28;;;;;;;16.30;7.25;;;;;;;0.66;100.00;100214.97;5086059;28;20031;-74
2021/12/09 00:02:53;;;;;;;16.80;8.60;;;;;;;0.59;100.00;100215.41;5081414;28;20032;-74
2021/12/09 00:05:19;;;;;;;20.08;8.30;;;;;;;0.62;100.00;100225.72;5081053;28;20031;-75
2021/12/09 00:07:49;;;;;;;17.02;7.97;;;;;;;0.58;100.00;100223.78;5081245;28;20027;-75
2021/12/09 00:10:15;;;;;;;12.73;6.85;;;;;;;0.59;100.00;100226.38;5081856;28;20531;-75
2021/12/09 00:12:40;;;;;;;19.02;7.30;;;;;;;0.58;100.00;100226.31;5077785;28;20546;-74
2021/12/09 00:15:06;;;;;;;17.58;7.85;;;;;;;0.56;100.00;100217.78;5078111;28;20044;-73
2021/12/09 00:17:32;;;;;;;16.98;7.20;;;;;;;0.52;100.00;100207.47;5084647;28;20463;-74
2021/12/09 00:19:58;;;;;;;21.77;8.13;;;;;;;0.52;100.00;100212.53;5082642;28;20026;-74
2021/12/09 00:22:25;;;;;;;18.70;8.60;;;;;;;0.45;100.00;100215.50;5075463;28;20504;-74
2021/12/09 00:24:50;;;;;;;18.05;7.85;;;;;;;0.42;100.00;100222.88;5081690;28;20123;-74
2021/12/09 00:27:16;;;;;;;18.00;8.20;;;;;;;0.40;100.00;100221.94;5079514;28;20107;-74
2021/12/09 00:29:41;;;;;;;18.25;8.07;;;;;;;0.52;100.00;100221.78;5080433;28;20028;-75
2021/12/09 00:32:07;;;;;;;20.27;7.80;;;;;;;0.50;100.00;100218.28;5084393;28;20021;-75
2021/12/09 00:34:35;;;;;;;14.82;7.35;;;;;;;0.47;100.00;100218.09;5087891;28;21614;-74
2021/12/09 00:37:18;;;;;;;18.23;8.13;;;;;;;0.45;100.00;100218.03;5085409;28;20449;-74
2021/12/09 00:39:45;;;;;;;18.80;7.57;;;;;;;0.45;100.00;100220.53;5089129;28;20491;-74
2021/12/09 00:42:11;;;;;;;19.33;7.25;;;;;;;0.43;100.00;100216.19;5088932;28;20044;-74
2021/12/09 00:44:37;;;;;;;19.55;7.47;;;;;;;0.54;100.00;100213.47;5088689;28;20032;-74
2021/12/09 00:47:03;;;;;;;23.98;8.75;;;;;;;0.51;100.00;100215.84;5083636;28;20023;-73
2021/12/09 00:49:30;;;;;;;18.92;7.93;;;;;;;0.49;100.00;100227.53;5088508;28;20016;-73
2021/12/09 00:51:57;;;;;;;23.13;7.95;;;;;;;0.54;100.00;100228.66;5086221;28;20032;-75
2021/12/09 00:54:23;;;;;;;21.52;8.50;;;;;;;0.54;100.00;100221.06;5087115;28;20095;-74
2021/12/09 00:56:49;;;;;;;15.48;6.95;;;;;;;0.60;100.00;100229.78;5084844;28;20111;-73
2021/12/09 00:59:14;;;;;;;16.75;7.90;;;;;;;0.62;100.00;100223.19;5087723;28;20020;-74
2021/12/09 01:01:40;;;;;;;17.77;7.47;;;;;;;0.72;100.00;100230.50;5088309;28;20051;-74
2021/12/09 01:04:06;;;;;;;21.38;8.57;;;;;;;0.81;100.00;100231.03;5083789;28;20268;-75
2021/12/09 01:06:31;;;;;;;16.73;8.18;;;;;;;0.89;100.00;100228.91;5087661;28;20028;-75
2021/12/09 01:08:57;;;;;;;15.98;7.43;;;;;;;0.92;100.00;100227.44;5085809;28;20012;-75
2021/12/09 01:11:22;;;;;;;19.23;7.75;;;;;;;1.00;100.00;100222.81;5084140;28;20024;-74
2021/12/09 01:13:47;;;;;;;15.20;7.15;;;;;;;1.03;100.00;100226.41;5081113;28;20024;-74
2021/12/09 01:16:13;;;;;;;14.38;7.03;;;;;;;1.01;100.00;100227.94;5082825;28;20039;-74
2021/12/09 01:18:40;;;;;;;18.00;6.88;;;;;;;0.98;100.00;100232.84;5081843;28;20447;-74
2021/12/09 01:21:06;;;;;;;16.35;7.20;;;;;;;0.94;100.00;100241.06;5083789;28;20012;-74
2021/12/09 01:23:33;;;;;;;21.02;7.43;;;;;;;0.82;100.00;100239.50;5081471;28;20032;-74
2021/12/09 01:26:03;;;;;;;17.38;7.63;;;;;;;0.89;100.00;100239.03;5086825;28;20024;-73
2021/12/09 01:28:33;;;;;;;17.25;7.55;;;;;;;0.85;100.00;100240.56;5084312;28;20024;-74
2021/12/09 01:31:04;;;;;;;17.83;7.65;;;;;;;0.88;100.00;100242.38;5084267;28;20048;-74
2021/12/09 01:33:31;;;;;;;13.65;7.00;;;;;;;0.86;100.00;100242.28;5087914;28;20111;-74
2021/12/09 01:35:57;;;;;;;16.65;7.20;;;;;;;0.81;100.00;100246.22;5087170;28;20024;-73
2021/12/09 01:38:24;;;;;;;18.65;7.53;;;;;;;0.85;100.00;100250.69;5088865;28;20024;-75
2021/12/09 01:40:50;;;;;;;14.48;7.50;;;;;;;0.77;100.00;100249.34;5086145;28;20043;-74
2021/12/09 01:43:15;;;;;;;17.42;7.03;;;;;;;0.68;100.00;100246.31;5081037;28;20040;-75
2021/12/09 01:45:41;;;;;;;14.50;6.93;;;;;;;0.60;100.00;100248.38;5088211;28;20036;-73
2021/12/09 01:48:06;;;;;;;15.30;7.03;;;;;;;0.60;100.00;100244.97;5092871;28;20028;-73
2021/12/09 01:50:33;;;;;;;15.18;6.90;;;;;;;0.61;100.00;100247.63;5088759;28;20032;-74
2021/12/09 01:52:59;;;;;;;19.23;7.65;;;;;;;0.52;100.00;100239.47;5088745;28;20141;-74
2021/12/09 01:55:26;;;;;;;16.58;6.25;;;;;;;0.51;100.00;100243.66;5090529;28;20020;-74
2021/12/09 01:57:52;;;;;;;16.92;6.53;;;;;;;0.53;100.00;100238.69;5088137;28;20035;-74
2021/12/09 02:00:22;;;;;;;14.18;7.15;;;;;;;0.54;100.00;100235.38;5088682;28;20036;-73
2021/12/09 02:02:50;;;;;;;16.63;6.72;;;;;;;0.58;100.00;100239.84;5091252;28;20059;-75
2021/12/09 02:05:16;;;;;;;21.20;7.65;;;;;;;0.50;100.00;100233.47;5071405;28;20035;-74
2021/12/09 02:07:41;;;;;;;14.32;6.90;;;;;;;0.38;100.00;100238.69;5090680;28;20036;-73
2021/12/09 02:10:10;;;;;;;19.48;7.20;;;;;;;0.33;100.00;100229.09;5089381;28;20038;-74
2021/12/09 02:12:35;;;;;;;15.55;6.95;;;;;;;0.31;100.00;100229.00;5087627;28;20035;-74
2021/12/09 02:15:01;;;;;;;17.35;7.60;;;;;;;0.29;100.00;100233.06;5090109;28;20028;-74
2021/12/09 02:17:31;;;;;;;19.25;7.85;;;;;;;0.23;100.00;100228.53;5093432;28;20028;-73
2021/12/09 02:19:59;;;;;;;20.13;7.75;;;;;;;0.17;100.00;100228.16;5088828;28;20113;-74
2021/12/09 02:22:26;;;;;;;17.60;7.30;;;;;;;0.18;100.00;100224.88;5089599;28;20463;-74
2021/12/09 02:24:53;;;;;;;24.48;8.15;;;;;;;0.11;100.00;100222.75;5091176;28;20024;-74
2021/12/09 02:27:19;;;;;;;13.65;7.68;;;;;;;0.14;100.00;100228.00;5092164;28;20413;-74
2021/12/09 02:29:45;;;;;;;21.67;7.65;;;;;;;0.06;100.00;100220.72;5088819;28;20051;-74
2021/12/09 02:32:10;;;;;;;21.25;7.53;;;;;;;0.03;100.00;100223.97;5083397;28;20075;-74
2021/12/09 02:34:36;;;;;;;17.27;6.72;;;;;;;0.06;100.00;100225.78;5085888;28;20110;-74
2021/12/09 02:37:04;;;;;;;17.05;7.68;;;;;;;0.10;100.00;100227.72;5089975;28;20062;-74
2021/12/09 02:39:29;;;;;;;16.75;7.20;;;;;;;0.11;100.00;100227.81;5093461;28;20104;-74
2021/12/09 02:41:55;;;;;;;17.02;7.47;;;;;;;0.04;100.00;100222.31;5089419;28;20597;-74
2021/12/09 02:44:22;;;;;;;21.15;8.40;;;;;;;-0.01;100.00;100222.03;5087584;28;20043;-74
2021/12/09 02:46:51;;;;;;;18.02;7.97;;;;;;;-0.02;100.00;100225.34;5090276;28;20400;-74
2021/12/09 02:49:19;;;;;;;20.70;7.72;;;;;;;-0.11;100.00;100222.28;5089225;28;20035;-74
2021/12/09 02:51:46;;;;;;;22.73;7.40;;;;;;;-0.08;100.00;100230.03;5088746;28;20024;-74
2021/12/09 02:54:15;;;;;;;18.38;8.23;;;;;;;-0.12;100.00;100226.47;5087944;28;20036;-75
2021/12/09 02:56:41;;;;;;;17.50;7.63;;;;;;;-0.15;100.00;100230.44;5084869;28;20025;-74
2021/12/09 02:59:08;;;;;;;19.73;7.97;;;;;;;-0.16;100.00;100237.16;5090706;28;20075;-75
2021/12/09 03:01:37;;;;;;;21.80;9.60;;;;;;;-0.21;100.00;100230.94;5086193;28;20043;-73
2021/12/09 03:04:05;;;;;;;25.65;8.82;;;;;;;-0.11;100.00;100237.44;5089997;28;20023;-75
2021/12/09 03:06:38;;;;;;;18.48;7.20;;;;;;;-0.20;100.00;100240.25;5087300;28;20061;-75
2021/12/09 03:09:11;;;;;;;20.48;7.57;;;;;;;-0.21;100.00;100248.63;5089492;28;20116;-74
2021/12/09 03:11:37;;;;;;;19.15;8.05;;;;;;;-0.17;100.00;100248.03;5087713;28;20024;-73
2021/12/09 03:14:03;;;;;;;22.00;8.02;;;;;;;-0.21;100.00;100242.72;5090454;28;20505;-73
2021/12/09 03:16:30;;;;;;;20.45;8.10;;;;;;;-0.27;100.00;100251.66;5088145;28;20052;-74
2021/12/09 03:18:59;;;;;;;18.52;8.32;;;;;;;-0.28;100.00;100261.66;5087259;28;20032;-75
2021/12/09 03:21:31;;;;;;;19.33;8.02;;;;;;;-0.32;100.00;100260.59;5089881;28;20032;-75
2021/12/09 03:23:58;;;;;;;18.40;7.55;;;;;;;-0.27;100.00;100264.28;5091869;28;20080;-75
2021/12/09 03:26:29;;;;;;;17.77;8.35;;;;;;;-0.29;100.00;100272.56;5089293;28;20032;-74
2021/12/09 03:28:56;;;;;;;16.63;8.10;;;;;;;-0.29;100.00;100275.09;5087854;28;20073;-74
2021/12/09 03:31:22;;;;;;;18.52;7.95;;;;;;;-0.30;100.00;100273.34;5080658;28;20506;-73
2021/12/09 03:33:47;;;;;;;20.35;7.93;;;;;;;-0.29;100.00;100275.09;5088069;28;20042;-74
2021/12/09 03:36:13;;;;;;;23.00;8.88;;;;;;;-0.34;100.00;100276.44;5088686;28;20864;-74
2021/12/09 03:38:39;;;;;;;18.02;8.23;;;;;;;-0.34;100.00;100267.22;5088743;28;20020;-75
2021/12/09 03:41:05;;;;;;;21.42;8.32;;;;;;;-0.31;100.00;100271.56;5084943;28;20028;-73
2021/12/09 03:43:32;;;;;;;19.73;8.68;;;;;;;-0.29;100.00;100280.16;5092265;28;20123;-74
2021/12/09 03:45:59;;;;;;;24.00;7.77;;;;;;;-0.28;100.00;100282.75;5084608;28;20416;-74
2021/12/09 03:48:27;;;;;;;19.90;7.75;;;;;;;-0.31;100.00;100274.97;5088254;28;20031;-74
2021/12/09 03:50:54;;;;;;;22.80;8.05;;;;;;;-0.33;100.00;100283.25;5089459;28;20107;-74
2021/12/09 03:53:20;;;;;;;19.13;8.30;;;;;;;-0.30;100.00;100283.44;5088204;28;20055;-74
2021/12/09 03:55:46;;;;;;;24.60;8.20;;;;;;;-0.26;100.00;100277.78;5071600;28;20064;-74
2021/12/09 03:58:13;;;;;;;19.95;7.78;;;;;;;-0.28;100.00;100285.28;5087070;28;20051;-74
2021/12/09 04:00:39;;;;;;;20.77;6.97;;;;;;;-0.28;100.00;100280.22;5088094;28;20024;-74
2021/12/09 04:03:05;;;;;;;16.75;6.50;;;;;;;-0.35;100.00;100274.72;5084177;28;20020;-74
2021/12/09 04:05:30;;;;;;;15.43;6.30;;;;;;;-0.35;100.00;100278.09;5085230;28;20069;-76
2021/12/09 04:07:56;;;;;;;21.20;7.13;;;;;;;-0.34;100.00;100276.44;5087381;28;20043;-75
2021/12/09 04:10:21;;;;;;;18.23;7.03;;;;;;;-0.25;100.00;100278.66;5066817;28;20032;-74
2021/12/09 04:12:47;;;;;;;16.75;7.53;;;;;;;-0.37;100.00;100273.72;5085396;28;20637;-75
2021/12/09 04:15:12;;;;;;;19.35;6.63;;;;;;;-0.36;100.00;100276.38;5066138;28;20526;-75
2021/12/09 04:17:38;;;;;;;19.05;6.80;;;;;;;-0.34;100.00;100266.34;5085641;28;20077;-74
2021/12/09 04:20:07;;;;;;;16.25;6.55;;;;;;;-0.26;100.00;100275.25;5088159;28;20111;-74
2021/12/09 04:22:33;;;;;;;11.65;6.03;;;;;;;-0.33;100.00;100274.00;5088152;28;20016;-75
2021/12/09 04:24:59;;;;;;;16.95;6.60;;;;;;;-0.31;100.00;100274.97;5085215;28;20027;-75
2021/12/09 04:27:25;;;;;;;20.50;6.45;;;;;;;-0.29;100.00;100280.16;5079036;28;20153;-75
2021/12/09 04:29:51;;;;;;;14.13;6.38;;;;;;;-0.26;100.00;100290.41;5085569;28;20072;-74
2021/12/09 04:32:17;;;;;;;20.50;6.72;;;;;;;-0.27;100.00;100292.06;5084933;28;20035;-75
2021/12/09 04:34:44;;;;;;;15.93;6.45;;;;;;;-0.33;100.00;100293.34;5086246;28;20737;-73
2021/12/09 04:37:09;;;;;;;15.77;6.43;;;;;;;-0.39;100.00;100285.41;5080955;28;20063;-74
2021/12/09 04:39:35;;;;;;;19.52;6.95;;;;;;;-0.35;100.00;100298.31;5087061;28;20460;-75
2021/12/09 04:42:01;;;;;;;15.98;5.68;;;;;;;-0.27;100.00;100294.59;5079431;28;20078;-74
2021/12/09 04:44:26;;;;;;;17.60;6.35;;;;;;;-0.29;100.00;100298.69;5087794;28;20137;-74
2021/12/09 04:46:51;;;;;;;16.60;5.78;;;;;;;-0.32;100.00;100292.56;5086887;28;20032;-75
2021/12/09 04:49:17;;;;;;;21.17;6.38;;;;;;;-0.28;100.00;100297.03;5087277;28;20051;-75
2021/12/09 04:51:42;;;;;;;14.82;5.28;;;;;;;-0.31;100.00;100292.66;5085835;28;20045;-74
2021/12/09 04:54:08;;;;;;;14.75;5.82;;;;;;;-0.30;100.00;100291.03;5092024;28;20047;-75
2021/12/09 04:56:35;;;;;;;17.98;6.32;;;;;;;-0.31;100.00;100292.66;5086470;28;20036;-75
2021/12/09 04:59:01;;;;;;;15.52;5.32;;;;;;;-0.32;100.00;100290.91;5078985;28;20507;-74
2021/12/09 05:01:27;;;;;;;17.30;5.63;;;;;;;-0.25;100.00;100288.75;5088010;28;20039;-74
2021/12/09 05:03:53;;;;;;;20.25;6.05;;;;;;;-0.25;100.00;100289.63;5090114;28;20044;-75
2021/12/09 05:06:18;;;;;;;15.65;6.07;;;;;;;-0.26;100.00;100277.78;5085622;28;20027;-75
2021/12/09 05:08:47;;;;;;;17.85;5.63;;;;;;;-0.34;100.00;100289.09;5085117;28;20031;-75
2021/12/09 05:11:33;;;;;;;17.33;5.20;;;;;;;-0.32;100.00;100300.16;5082617;28;20031;-75
2021/12/09 05:13:59;;;;;;;14.77;5.32;;;;;;;-0.35;100.00;100299.97;5086813;28;20370;-75
2021/12/09 05:16:25;;;;;;;18.60;6.05;;;;;;;-0.34;100.00;100296.66;5091096;28;20020;-74
2021/12/09 05:18:57;;;;;;;14.18;5.15;;;;;;;-0.36;100.00;100304.16;5085373;28;20039;-75
2021/12/09 05:21:23;;;;;;;14.18;4.30;;;;;;;-0.36;100.00;100305.81;5085816;28;20031;-74
2021/12/09 05:23:49;;;;;;;15.73;6.03;;;;;;;-0.36;100.00;100305.81;5087970;28;20025;-74
2021/12/09 05:26:16;;;;;;;14.40;5.30;;;;;;;-0.31;100.00;100310.34;5086832;28;20390;-74
2021/12/09 05:28:44;;;;;;;15.85;5.70;;;;;;;-0.27;100.00;100308.88;5090487;28;20036;-75
2021/12/09 05:33:56;;;;;;;15.50;4.88;;;;;;;-0.34;100.00;100306.78;5083079;28;20596;-74
2021/12/09 05:36:21;;;;;;;15.63;5.70;;;;;;;-0.35;100.00;100308.44;5083883;28;20570;-74
2021/12/09 05:38:47;;;;;;;19.17;5.30;;;;;;;-0.34;100.00;100306.78;5089161;28;20165;-74
2021/12/09 05:41:12;;;;;;;17.13;5.20;;;;;;;-0.37;100.00;100304.03;5087071;28;20032;-74
2021/12/09 05:43:38;;;;;;;15.85;6.10;;;;;;;-0.37;100.00;100315.00;5091803;28;20052;-75
2021/12/09 05:46:04;;;;;;;16.70;5.63;;;;;;;-0.40;100.00;100319.88;5092680;28;20058;-74
2021/12/09 05:48:31;;;;;;;13.60;5.50;;;;;;;-0.37;100.00;100325.13;5086365;28;20034;-74
2021/12/09 05:50:57;;;;;;;21.30;5.40;;;;;;;-0.38;100.00;100320.84;5090657;28;20103;-74
2021/12/09 05:53:23;;;;;;;16.38;5.43;;;;;;;-0.33;100.00;100323.66;5094464;28;20023;-75
2021/12/09 05:55:49;;;;;;;19.25;6.00;;;;;;;-0.35;100.00;100330.28;5092990;28;20745;-75
2021/12/09 05:58:18;;;;;;;12.13;5.30;;;;;;;-0.32;100.00;100331.34;5086304;28;20032;-74
2021/12/09 06:00:45;;;;;;;20.33;6.00;;;;;;;-0.20;100.00;100322.78;5091685;28;20362;-74
2021/12/09 06:03:10;;;;;;;17.33;5.90;;;;;;;-0.24;100.00;100326.78;5091171;28;20023;-75
2021/12/09 06:05:36;;;;;;;12.80;5.53;;;;;;;-0.30;100.00;100328.94;5086998;28;20047;-75
2021/12/09 06:08:03;;;;;;;22.40;5.53;;;;;;;-0.26;100.00;100315.69;5087964;28;20020;-74
2021/12/09 06:10:29;;;;;;;15.02;5.20;;;;;;;-0.27;100.00;100324.06;5087377;28;20069;-75
2021/12/09 06:12:54;;;;;;;13.35;5.43;;;;;;;-0.24;100.00;100316.69;5091536;28;20111;-74
2021/12/09 06:15:20;;;;;;;14.90;6.50;;;;;;;-0.32;100.00;100317.84;5092162;28;20107;-74
2021/12/09 06:17:45;;;;;;;14.18;5.72;;;;;;;-0.38;100.00;100319.97;5087406;28;20066;-74
2021/12/09 06:20:11;;;;;;;14.35;5.15;;;;;;;-0.36;100.00;100326.03;5091801;28;20035;-74
2021/12/09 06:22:37;;;;;;;18.42;6.40;;;;;;;-0.37;100.00;100322.59;5088217;28;20032;-75
2021/12/09 06:25:04;;;;;;;19.55;6.10;;;;;;;-0.37;100.00;100316.66;5092292;28;20027;-75
2021/12/09 06:27:29;;;;;;;24.75;7.05;;;;;;;-0.43;100.00;100319.69;5090436;28;20056;-74
2021/12/09 06:29:55;;;;;;;15.68;5.60;;;;;;;-0.40;100.00;100319.00;5085911;28;20055;-74
2021/12/09 06:32:21;;;;;;;14.45;5.57;;;;;;;-0.46;100.00;100319.50;5089941;28;20056;-74
2021/12/09 06:34:46;;;;;;;17.42;6.45;;;;;;;-0.50;100.00;100320.06;5090136;28;20078;-74
2021/12/09 06:37:11;;;;;;;17.13;6.05;;;;;;;-0.48;100.00;100323.59;5089358;28;20040;-74
2021/12/09 06:39:37;;;;;;;14.88;5.10;;;;;;;-0.45;100.00;100322.91;5086778;28;20475;-74
2021/12/09 06:42:03;;;;;;;19.80;6.72;;;;;;;-0.44;100.00;100335.63;5070269;28;20066;-74
2021/12/09 06:44:28;;;;;;;19.23;6.22;;;;;;;-0.43;100.00;100336.50;5089097;28;20020;-74
2021/12/09 06:46:55;;;;;;;18.80;6.43;;;;;;;-0.47;100.00;100340.50;5088475;28;20035;-76
2021/12/09 06:49:22;;;;;;;17.08;6.95;;;;;;;-0.48;100.00;100335.34;5088092;28;20036;-74
2021/12/09 06:51:48;;;;;;;22.88;6.95;;;;;;;-0.41;100.00;100347.59;5087753;28;20020;-75
2021/12/09 06:54:13;;;;;;;13.73;6.43;;;;;;;-0.48;100.00;100345.44;5086830;28;20398;-75
2021/12/09 06:56:39;;;;;;;16.88;6.60;;;;;;;-0.47;100.00;100345.53;5088308;28;20109;-75
2021/12/09 06:59:04;;;;;;;22.98;7.15;;;;;;;-0.44;100.00;100344.84;5086369;28;20050;-75
2021/12/09 07:01:30;;;;;;;18.27;7.05;;;;;;;-0.48;100.00;100338.75;5086408;28;20142;-75
2021/12/09 07:03:55;;;;;;;23.55;8.00;;;;;;;-0.44;100.00;100350.78;5088380;28;20020;-75
2021/12/09 07:06:21;;;;;;;21.15;6.70;;;;;;;-0.40;100.00;100346.81;5089208;28;20043;-68
2021/12/09 07:08:48;;;;;;;17.88;6.30;;;;;;;-0.40;100.00;100349.31;5088281;28;20093;-74
2021/12/09 07:11:17;;;;;;;23.88;7.07;;;;;;;-0.44;100.00;100357.47;5088898;28;20065;-75
2021/12/09 07:13:43;;;;;;;20.10;7.57;;;;;;;-0.43;100.00;100349.13;5083905;28;20039;-75
2021/12/09 07:16:09;;;;;;;16.33;6.93;;;;;;;-0.50;100.00;100352.03;5089748;28;20020;-75
2021/12/09 07:18:35;;;;;;;20.27;6.45;;;;;;;-0.46;100.00;100351.47;5088992;28;20477;-73
2021/12/09 07:21:01;;;;;;;20.98;6.82;;;;;;;-0.51;100.00;100351.16;5088817;28;20043;-74
2021/12/09 07:23:26;;;;;;;18.20;6.80;;;;;;;-0.49;100.00;100354.66;5088759;28;20040;-74
2021/12/09 07:25:52;;;;;;;12.98;7.20;;;;;;;-0.49;100.00;100351.25;5089026;28;20028;-74
2021/12/09 07:28:17;;;;;;;17.58;6.93;;;;;;;-0.43;100.00;100357.56;5086968;28;20032;-75
2021/12/09 07:30:43;;;;;;;21.77;6.80;;;;;;;-0.41;100.00;100353.50;5086319;28;20102;-75
2021/12/09 07:33:09;;;;;;;16.80;6.70;;;;;;;-0.42;100.00;100359.34;5088864;28;20528;-76
2021/12/09 07:35:34;;;;;;;20.70;7.15;;;;;;;-0.40;100.00;100357.78;5084757;28;20036;-74
2021/12/09 07:38:01;;;;;;;22.27;6.70;;;;;;;-0.35;100.00;100361.47;5088177;28;20411;-74
2021/12/09 07:40:28;;;;;;;20.33;7.15;;;;;;;-0.36;100.00;100364.78;5088791;28;20024;-73
2021/12/09 07:42:53;;;;;;;21.65;7.43;;;;;;;-0.34;100.00;100364.88;5086709;28;20464;-74
2021/12/09 07:45:19;;;;;;;20.83;7.63;;;;;;;-0.37;100.00;100357.94;5084711;28;20031;-74
2021/12/09 07:47:47;;;;;;;23.27;10.73;;;;;;;-0.29;100.00;100361.00;5085393;28;20024;-74
2021/12/09 07:50:16;;;;;;;17.45;8.13;;;;;;;-0.27;100.00;100359.41;5087372;28;20110;-76
2021/12/09 07:52:43;;;;;;;;;;;;;;;-0.20;100.00;100365.72;5089058;28;20056;-74
2021/12/09 07:55:11;;;;;;;20.42;7.88;;;;;;;-0.23;100.00;100348.75;5086548;28;19965;-74
2021/12/09 07:57:37;;;;;;;20.02;7.63;;;;;;;-0.14;100.00;100356.88;5088132;28;20039;-74
2021/12/09 08:00:06;;;;;;;18.23;6.70;;;;;;;-0.16;100.00;100352.53;5087523;28;20032;-74
2021/12/09 08:02:32;;;;;;;19.15;6.95;;;;;;;-0.12;100.00;100360.41;5088895;28;20016;-74
2021/12/09 08:04:57;;;;;;;16.60;7.45;;;;;;;-0.10;100.00;100356.31;5088119;28;20450;-75
2021/12/09 08:07:24;;;;;;;12.50;6.63;;;;;;;-0.07;100.00;100370.75;5086934;28;20469;-75
2021/12/09 08:09:51;;;;;;;20.65;7.40;;;;;;;-0.06;100.00;100369.97;5085815;28;20027;-74
2021/12/09 08:12:16;;;;;;;18.48;6.90;;;;;;;0.01;100.00;100373.78;5090754;28;20432;-75
2021/12/09 08:14:44;;;;;;;17.80;7.22;;;;;;;0.02;100.00;100381.47;5088612;28;20117;-75
2021/12/09 08:17:22;;;;;;;21.15;7.10;;;;;;;0.09;100.00;100391.16;5087254;28;20063;-74
2021/12/09 08:19:48;;;;;;;18.33;6.53;;;;;;;0.17;100.00;100394.16;5087986;28;20036;-75
2021/12/09 08:22:14;;;;;;;17.90;7.80;;;;;;;0.24;100.00;100389.59;5087164;28;20024;-74
2021/12/09 08:24:39;;;;;;;14.95;7.05;;;;;;;0.39;100.00;100387.13;5085453;28;20040;-75
2021/12/09 08:27:05;;;;;;;20.92;8.55;;;;;;;0.60;100.00;100376.53;5084585;28;20086;-74
2021/12/09 08:29:30;;;;;;;13.55;5.72;;;;;;;0.73;100.00;100387.50;5087449;28;20024;-74
2021/12/09 08:31:56;;;;;;;18.50;6.60;;;;;;;0.93;100.00;100372.59;5085552;28;20031;-75
2021/12/09 08:34:21;;;;;;;15.95;6.53;;;;;;;0.93;100.00;100367.53;5087202;28;20451;-73
2021/12/09 08:36:46;;;;;;;13.57;5.68;;;;;;;1.01;100.00;100369.72;5086607;28;20031;-74
2021/12/09 08:39:12;;;;;;;16.27;6.82;;;;;;;0.98;100.00;100377.16;5085129;28;20089;-75
2021/12/09 08:41:39;;;;;;;15.10;5.70;;;;;;;1.03;100.00;100374.88;5085680;28;20038;-73
2021/12/09 08:44:06;;;;;;;14.38;6.45;;;;;;;1.03;100.00;100377.41;5069812;28;20043;-75
2021/12/09 08:46:32;;;;;;;14.60;6.07;;;;;;;0.95;100.00;100374.44;5087681;28;20036;-74
2021/12/09 08:48:57;;;;;;;14.20;6.80;;;;;;;1.05;100.00;100379.25;5086390;28;20372;-74
2021/12/09 08:51:23;;;;;;;15.98;6.53;;;;;;;1.10;100.00;100376.13;5087185;28;20055;-75
2021/12/09 08:53:49;;;;;;;22.40;7.13;;;;;;;1.06;100.00;100378.47;5089105;28;20047;-75
2021/12/09 08:56:14;;;;;;;13.20;5.85;;;;;;;1.11;100.00;100393.94;5088563;28;20055;-75
2021/12/09 08:58:39;;;;;;;17.65;7.28;;;;;;;1.17;100.00;100384.16;5088554;28;20437;-75
2021/12/09 09:01:11;;;;;;;13.13;5.55;;;;;;;1.21;100.00;100383.53;5086827;28;20103;-75
2021/12/09 09:03:36;;;;;;;15.65;5.53;;;;;;;1.23;100.00;100383.63;5072536;28;20123;-75
2021/12/09 09:06:02;;;;;;;13.80;5.63;;;;;;;1.37;100.00;100389.47;5088292;28;20028;-74
2021/12/09 09:08:28;;;;;;;11.10;5.95;;;;;;;1.33;100.00;100375.75;5086227;28;20081;-75
2021/12/09 09:10:53;;;;;;;12.75;5.28;;;;;;;1.42;100.00;100385.56;5082488;28;20027;-75
2021/12/09 09:13:19;;;;;;;16.77;6.47;;;;;;;1.45;100.00;100394.19;5089009;28;20023;-74
2021/12/09 09:15:48;;;;;;;12.32;5.32;;;;;;;1.57;100.00;100388.94;5087356;28;20114;-74
2021/12/09 09:18:14;;;;;;;14.43;5.82;;;;;;;1.59;100.00;100390.78;5087416;28;20040;-74
2021/12/09 09:20:40;;;;;;;15.57;6.47;;;;;;;1.68;100.00;100392.06;5089892;28;20463;-75
2021/12/09 09:23:11;;;;;;;18.85;6.65;;;;;;;1.66;100.00;100396.19;5084112;28;20122;-74
2021/12/09 09:25:37;;;;;;;15.88;7.82;;;;;;;1.72;100.00;100404.16;5090594;28;20092;-74
2021/12/09 09:28:03;;;;;;;21.63;7.00;;;;;;;1.84;100.00;100398.09;5087078;28;20119;-73
2021/12/09 09:30:34;;;;;;;16.02;6.05;;;;;;;1.87;100.00;100402.44;5089582;28;20027;-75
2021/12/09 09:33:00;;;;;;;19.27;6.32;;;;;;;1.88;100.00;100404.19;5084564;28;20043;-75
2021/12/09 09:35:26;;;;;;;13.77;6.28;;;;;;;1.92;100.00;100395.09;5089633;28;20490;-75
2021/12/09 09:37:51;;;;;;;16.73;6.30;;;;;;;2.05;100.00;100397.50;5088647;28;20063;-75
2021/12/09 09:40:27;;;;;;;15.25;6.10;;;;;;;2.17;100.00;100404.91;5085962;28;20036;-75
2021/12/09 09:42:58;;;;;;;17.42;6.65;;;;;;;2.26;100.00;100407.97;5081664;28;20498;-74
2021/12/09 09:45:24;;;;;;;12.93;6.43;;;;;;;2.30;100.00;100402.22;5088284;28;20036;-75
2021/12/09 09:47:50;;;;;;;17.33;6.28;;;;;;;2.29;100.00;100405.56;5081377;28;20092;-75
2021/12/09 09:50:16;;;;;;;14.85;6.47;;;;;;;2.30;100.00;100405.63;5084944;28;20416;-76
2021/12/09 09:52:41;;;;;;;15.52;5.28;;;;;;;2.27;100.00;100400.41;5088064;28;20040;-74
2021/12/09 09:55:09;;;;;;;16.35;6.45;;;;;;;2.25;100.00;100404.56;5077664;28;20040;-73
2021/12/09 09:57:35;;;;;;;12.73;6.90;;;;;;;2.29;100.00;100410.66;5082966;28;20181;-74
2021/12/09 10:00:02;;;;;;;18.10;7.00;;;;;;;2.32;100.00;100410.81;5082310;28;20470;-75
2021/12/09 10:02:27;;;;;;;14.82;7.10;;;;;;;2.33;100.00;100408.34;5082119;28;20401;-74
2021/12/09 10:05:01;;;;;;;17.95;6.40;;;;;;;2.44;100.00;100418.22;5081749;28;20380;-74
2021/12/09 10:07:27;;;;;;;20.83;9.48;;;;;;;2.47;100.00;100419.22;5082839;28;20063;-74
2021/12/09 10:09:54;;;;;;;14.32;7.63;;;;;;;2.42;100.00;100415.56;5086694;28;20475;-74
2021/12/09 10:12:20;;;;;;;15.82;6.82;;;;;;;2.52;100.00;100411.88;5084351;28;20040;-74
2021/12/09 10:14:49;;;;;;;17.30;6.82;;;;;;;2.48;100.00;100404.88;5084727;28;20125;-75
2021/12/09 10:17:18;;;;;;;17.20;7.18;;;;;;;2.51;100.00;100400.84;5086488;28;20035;-74
2021/12/09 10:19:47;;;;;;;18.50;6.50;;;;;;;2.53;100.00;100398.38;5089560;28;20020;-75
2021/12/09 10:22:16;;;;;;;16.58;7.07;;;;;;;2.57;100.00;100392.69;5086703;28;20024;-74
2021/12/09 10:24:44;;;;;;;10.18;5.07;;;;;;;2.71;100.00;100399.34;5087620;28;20098;-74
2021/12/09 10:27:18;;;;;;;14.00;6.57;;;;;;;2.74;100.00;100389.38;5088964;28;20039;-75
2021/12/09 10:29:46;;;;;;;17.95;7.15;;;;;;;2.75;100.00;100385.16;5091180;28;20057;-75
2021/12/09 10:32:20;;;;;;;16.08;8.07;;;;;;;2.80;100.00;100378.66;5090334;28;20144;-74
2021/12/09 10:34:48;;;;;;;11.88;5.93;;;;;;;2.91;100.00;100382.59;5086932;28;20031;-73
2021/12/09 10:37:31;;;;;;;14.05;6.85;;;;;;;3.08;100.00;100376.69;5089460;28;20024;-74
2021/12/09 10:40:02;;;;;;;11.88;6.00;;;;;;;3.26;99.85;100376.72;5090584;28;20034;-74
2021/12/09 10:42:29;;;;;;;17.65;6.68;;;;;;;3.35;99.80;100386.50;5089960;28;20097;-74
2021/12/09 10:45:03;;;;;;;17.75;6.65;;;;;;;3.30;98.86;100378.63;5091248;28;20098;-74
2021/12/09 10:47:45;;;;;;;15.90;7.13;;;;;;;3.30;99.59;100380.31;5087903;28;20584;-74
2021/12/09 10:50:32;;;;;;;15.02;8.02;;;;;;;3.22;100.00;100383.34;5088463;28;20436;-74
2021/12/09 10:53:58;;;;;;;12.23;6.40;;;;;;;3.32;98.48;100394.81;5091431;28;20552;-74
2021/12/09 10:56:30;;;;;;;12.77;7.22;;;;;;;3.35;99.55;100396.66;5087015;28;20115;-74
2021/12/09 10:58:56;;;;;;;14.85;6.45;;;;;;;3.35;99.66;100397.53;5089280;28;20114;-75
2021/12/09 11:01:24;;;;;;;17.13;6.80;;;;;;;3.31;99.97;100390.53;5099849;28;20034;-75
2021/12/09 11:03:57;;;;;;;13.68;6.47;;;;;;;3.30;100.00;100393.03;5082255;28;20111;-75
2021/12/09 11:06:29;;;;;;;11.90;6.80;;;;;;;3.25;100.00;100384.28;5087668;28;20020;-74
2021/12/09 11:08:56;;;;;;;12.25;5.95;;;;;;;3.27;100.00;100397.94;5087117;28;20039;-75
2021/12/09 11:11:45;;;;;;;14.00;6.90;;;;;;;3.30;100.00;100391.34;5091766;28;20024;-73
2021/12/09 11:14:17;;;;;;;16.83;6.80;;;;;;;3.35;100.00;100389.91;5091973;28;20028;-74
2021/12/09 11:16:48;;;;;;;19.85;6.30;;;;;;;3.39;100.00;100378.19;5091692;28;20378;-75